createdAt,value
2017-06-28T00:02:23.570Z,95146.06
2017-06-28T00:04:51.336Z,95146.22
2017-06-28T00:07:18.849Z,95152.61
2017-06-28T00:09:46.450Z,95148.54
2017-06-28T00:12:13.975Z,95150.36
2017-06-28T00:14:41.493Z,95155.17
2017-06-28T00:17:09.016Z,95155.37
2017-06-28T00:19:36.522Z,95148.20
2017-06-28T00:22:04.035Z,95158.41
2017-06-28T00:24:31.595Z,95151.84
2017-06-28T00:26:59.163Z,95150.61
2017-06-28T00:29:26.690Z,95109.29
2017-06-28T00:31:54.279Z,95143.70
2017-06-28T00:34:21.853Z,95147.60
2017-06-28T00:36:49.361Z,95139.81
2017-06-28T00:39:16.922Z,95137.29
2017-06-28T00:41:44.442Z,95136.72
2017-06-28T00:44:11.945Z,95143.06
2017-06-28T00:46:39.530Z,95141.51
2017-06-28T00:49:07.298Z,95143.41
2017-06-28T00:51:34.833Z,95143.52
2017-06-28T00:54:02.404Z,95141.83
2017-06-28T00:56:29.986Z,95141.02
2017-06-28T00:58:57.520Z,95146.73
2017-06-28T01:01:25.109Z,95138.66
2017-06-28T01:03:52.939Z,95147.84
2017-06-28T01:06:20.506Z,95145.17
2017-06-28T01:08:48.074Z,95136.59
2017-06-28T01:11:15.609Z,95136.08
2017-06-28T01:13:43.153Z,95135.16
2017-06-28T01:16:10.741Z,95126.52
2017-06-28T01:18:38.254Z,95131.72
2017-06-28T01:21:05.779Z,95158.72
2017-06-28T01:23:33.344Z,95119.96
2017-06-28T01:26:00.857Z,95127.27
2017-06-28T01:28:28.384Z,95127.84
2017-06-28T01:30:56.258Z,95125.25
2017-06-28T01:33:23.841Z,95123.98
2017-06-28T01:35:51.388Z,95128.57
2017-06-28T01:38:18.925Z,95119.41
2017-06-28T01:40:46.450Z,95131.48
2017-06-28T01:43:14.014Z,95127.27
2017-06-28T01:45:41.584Z,95127.30
2017-06-28T01:48:09.093Z,95132.98
2017-06-28T01:50:36.632Z,95126.52
2017-06-28T01:53:04.244Z,95124.25
2017-06-28T01:55:31.768Z,95125.13
2017-06-28T01:57:59.299Z,95130.42
2017-06-28T02:00:26.925Z,95135.91
2017-06-28T02:02:54.740Z,95132.93
2017-06-28T02:05:22.551Z,95137.16
2017-06-28T02:07:50.127Z,95139.45
2017-06-28T02:10:17.625Z,95147.17
2017-06-28T02:12:45.145Z,95139.34
2017-06-28T02:15:12.713Z,95135.05
2017-06-28T02:17:40.220Z,95135.86
2017-06-28T02:20:07.730Z,95134.97
2017-06-28T02:22:35.327Z,95126.91
2017-06-28T02:25:02.895Z,95134.59
2017-06-28T02:27:30.461Z,95125.13
2017-06-28T02:29:58.062Z,95132.61
2017-06-28T02:32:25.621Z,95135.66
2017-06-28T02:34:53.131Z,95132.48
2017-06-28T02:37:20.641Z,95146.00
2017-06-28T02:39:48.249Z,95140.80
2017-06-28T02:42:15.766Z,95134.74
2017-06-28T02:44:43.274Z,95068.66
2017-06-28T02:47:10.847Z,95134.81
2017-06-28T02:49:38.365Z,95133.72
2017-06-28T02:52:05.871Z,95141.98
2017-06-28T02:54:33.468Z,95138.55
2017-06-28T02:57:00.993Z,95140.95
2017-06-28T02:59:28.512Z,95143.70
2017-06-28T03:01:56.060Z,95145.81
2017-06-28T03:04:23.631Z,95141.42
2017-06-28T03:06:51.171Z,95140.83
2017-06-28T03:09:18.722Z,95136.14
2017-06-28T03:11:46.239Z,95139.09
2017-06-28T03:14:13.762Z,95133.27
2017-06-28T03:16:41.380Z,95131.14
2017-06-28T03:19:08.897Z,95135.88
2017-06-28T03:21:36.404Z,95134.16
2017-06-28T03:24:04.002Z,95135.19
2017-06-28T03:26:31.521Z,95133.77
2017-06-28T03:28:59.361Z,95135.14
2017-06-28T03:31:26.969Z,95110.97
2017-06-28T03:33:54.548Z,95129.52
2017-06-28T03:36:22.080Z,95133.55
2017-06-28T03:38:49.624Z,95130.17
2017-06-28T03:41:17.137Z,95119.99
2017-06-28T03:43:44.657Z,95127.23
2017-06-28T03:46:12.276Z,95125.88
2017-06-28T03:48:39.865Z,95120.78
2017-06-28T03:51:07.393Z,95118.23
2017-06-28T03:53:35.158Z,95125.38
2017-06-28T03:56:02.664Z,95119.67
2017-06-28T03:58:30.187Z,95121.84
2017-06-28T04:00:57.740Z,95128.73
2017-06-28T04:03:25.509Z,95129.58
2017-06-28T04:05:53.020Z,95130.50
2017-06-28T04:08:20.566Z,95135.84
2017-06-28T04:10:48.110Z,95136.16
2017-06-28T04:13:15.636Z,95129.67
2017-06-28T04:15:43.191Z,95140.41
2017-06-28T04:18:10.744Z,95142.38
2017-06-28T04:20:38.352Z,95144.95
2017-06-28T04:23:06.006Z,95144.33
2017-06-28T04:25:33.526Z,95144.47
2017-06-28T04:28:01.040Z,95146.06
2017-06-28T04:30:28.602Z,95143.41
2017-06-28T04:32:56.116Z,95142.44
2017-06-28T04:35:23.624Z,95143.05
2017-06-28T04:37:51.154Z,95143.13
2017-06-28T04:40:18.666Z,95139.22
2017-06-28T04:42:46.181Z,95146.83
2017-06-28T04:45:13.744Z,95147.48
2017-06-28T04:47:41.290Z,95147.75
2017-06-28T04:50:08.809Z,95148.34
2017-06-28T04:52:36.377Z,95147.48
2017-06-28T04:55:03.884Z,95143.52
2017-06-28T04:57:31.388Z,95145.30
2017-06-28T04:59:58.933Z,95144.73
2017-06-28T05:02:26.482Z,95144.47
2017-06-28T05:04:53.988Z,95150.62
2017-06-28T05:07:21.496Z,95146.09
2017-06-28T05:09:49.042Z,95145.70
2017-06-28T05:12:16.559Z,95150.81
2017-06-28T05:14:44.060Z,95147.16
2017-06-28T05:17:11.614Z,95156.60
2017-06-28T05:19:39.122Z,95149.98
2017-06-28T05:22:06.697Z,95155.92
2017-06-28T05:24:34.309Z,95155.27
2017-06-28T05:27:01.893Z,95150.00
2017-06-28T05:29:29.458Z,95152.97
2017-06-28T05:31:57.058Z,95146.56
2017-06-28T05:34:24.573Z,95145.80
2017-06-28T05:36:52.095Z,95146.17
2017-06-28T05:39:19.664Z,95151.80
2017-06-28T05:41:47.172Z,95146.03
2017-06-28T05:44:14.693Z,95147.36
2017-06-28T05:46:42.240Z,95143.80
2017-06-28T05:49:09.754Z,95145.02
2017-06-28T05:51:37.310Z,95148.56
2017-06-28T05:54:04.856Z,95149.94
2017-06-28T05:56:32.366Z,95151.23
2017-06-28T05:58:59.888Z,95144.27
2017-06-28T06:01:27.443Z,95139.86
2017-06-28T06:03:54.963Z,95133.72
2017-06-28T06:06:22.490Z,95134.70
2017-06-28T06:08:50.142Z,95138.23
2017-06-28T06:11:17.655Z,95128.38
2017-06-28T06:13:45.165Z,95133.31
2017-06-28T06:16:12.704Z,95123.42
2017-06-28T06:18:40.227Z,95119.97
2017-06-28T06:21:07.811Z,95122.92
2017-06-28T06:23:35.353Z,95127.21
2017-06-28T06:26:02.888Z,95117.13
2017-06-28T06:28:30.403Z,95120.16
2017-06-28T06:30:57.953Z,95120.23
2017-06-28T06:33:25.448Z,95110.94
2017-06-28T06:35:52.969Z,95120.63
2017-06-28T06:38:20.578Z,95117.02
2017-06-28T06:40:48.097Z,95118.38
2017-06-28T06:43:15.608Z,95124.90
2017-06-28T06:45:43.180Z,95123.67
2017-06-28T06:48:10.751Z,95125.92
2017-06-28T06:50:39.204Z,95149.25
2017-06-28T06:53:06.756Z,95113.73
2017-06-28T06:55:34.274Z,95113.50
2017-06-28T06:58:01.800Z,95095.22
2017-06-28T07:00:29.347Z,95109.34
2017-06-28T07:02:56.868Z,95105.13
2017-06-28T07:05:24.393Z,95110.67
2017-06-28T07:07:51.953Z,95112.44
2017-06-28T07:10:19.484Z,95109.33
2017-06-28T07:12:46.993Z,95108.22
2017-06-28T07:15:14.583Z,95107.66
2017-06-28T07:17:42.107Z,95101.68
2017-06-28T07:20:09.626Z,95106.44
2017-06-28T07:22:37.169Z,95108.33
2017-06-28T07:25:04.679Z,95109.83
2017-06-28T07:27:32.242Z,95109.55
2017-06-28T07:29:59.810Z,95104.49
2017-06-28T07:32:27.382Z,95098.38
2017-06-28T07:34:54.971Z,95094.39
2017-06-28T07:37:22.535Z,95086.47
2017-06-28T07:39:50.123Z,95086.38
2017-06-28T07:42:17.645Z,95082.88
2017-06-28T07:44:45.158Z,95080.02
2017-06-28T07:47:12.763Z,95077.98
2017-06-28T07:49:40.292Z,95088.25
2017-06-28T07:52:07.799Z,95084.86
2017-06-28T07:54:35.357Z,95092.19
2017-06-28T07:57:02.880Z,95091.28
2017-06-28T07:59:30.393Z,95089.44
2017-06-28T08:01:57.925Z,95087.05
2017-06-28T08:04:25.526Z,95090.52
2017-06-28T08:06:53.051Z,95082.38
2017-06-28T08:09:20.655Z,95085.21
2017-06-28T08:11:48.203Z,95078.83
2017-06-28T08:14:15.720Z,95074.17
2017-06-28T08:16:43.336Z,95075.42
2017-06-28T08:19:10.859Z,95073.64
2017-06-28T08:21:38.367Z,95069.63
2017-06-28T08:24:05.916Z,95076.67
2017-06-28T08:26:33.488Z,95072.48
2017-06-28T08:29:01.004Z,95077.83
2017-06-28T08:31:28.554Z,95064.95
2017-06-28T08:33:56.057Z,95071.18
2017-06-28T08:36:23.580Z,95065.45
2017-06-28T08:38:51.173Z,95056.48
2017-06-28T08:41:18.690Z,95056.58
2017-06-28T08:43:46.246Z,95051.55
2017-06-28T08:46:13.854Z,95049.60
2017-06-28T08:48:41.374Z,95054.63
2017-06-28T08:51:08.900Z,95052.02
2017-06-28T08:53:36.519Z,95050.84
2017-06-28T08:56:04.056Z,95051.93
2017-06-28T08:58:31.632Z,95046.53
2017-06-28T09:00:59.195Z,95046.13
2017-06-28T09:03:26.696Z,95035.02
2017-06-28T09:05:54.215Z,95022.66
2017-06-28T09:08:21.768Z,95011.31
2017-06-28T09:10:49.305Z,95013.41
2017-06-28T09:13:16.827Z,95015.14
2017-06-28T09:15:44.423Z,95022.65
2017-06-28T09:18:11.934Z,95016.53
2017-06-28T09:20:39.452Z,95021.40
2017-06-28T09:23:06.992Z,95008.68
2017-06-28T09:25:34.513Z,95021.72
2017-06-28T09:28:02.044Z,95016.05
2017-06-28T09:30:29.689Z,95010.06
2017-06-28T09:32:57.187Z,95002.88
2017-06-28T09:35:24.684Z,95005.61
2017-06-28T09:37:52.936Z,94996.55
2017-06-28T09:40:20.465Z,94997.90
2017-06-28T09:42:47.992Z,95002.12
2017-06-28T09:45:15.527Z,94997.44
2017-06-28T09:47:43.038Z,94991.48
2017-06-28T09:50:10.555Z,94997.47
2017-06-28T09:52:38.114Z,94992.32
2017-06-28T09:55:05.639Z,94985.05
2017-06-28T09:57:33.165Z,94985.86
2017-06-28T10:00:00.706Z,94980.73
2017-06-28T10:02:28.249Z,94983.31
2017-06-28T10:04:55.784Z,94982.59
2017-06-28T10:07:23.292Z,94977.31
2017-06-28T10:09:50.841Z,94983.56
2017-06-28T10:12:18.361Z,94974.11
2017-06-28T10:14:45.876Z,94977.86
2017-06-28T10:17:13.436Z,94982.62
2017-06-28T10:19:40.950Z,94971.34
2017-06-28T10:22:08.462Z,94977.59
2017-06-28T10:24:36.008Z,94967.41
2017-06-28T10:27:03.525Z,94978.92
2017-06-28T10:29:31.068Z,94965.11
2017-06-28T10:31:58.615Z,94884.47
2017-06-28T10:34:26.136Z,94958.48
2017-06-28T10:36:53.645Z,94945.86
2017-06-28T10:39:21.208Z,94945.04
2017-06-28T10:41:48.720Z,94939.99
2017-06-28T10:44:16.240Z,94935.70
2017-06-28T10:46:43.809Z,94938.98
2017-06-28T10:49:11.501Z,94936.84
2017-06-28T10:51:39.063Z,94937.90
2017-06-28T10:54:06.674Z,94937.32
2017-06-28T10:56:34.213Z,94931.87
2017-06-28T10:59:01.733Z,94927.61
2017-06-28T11:01:29.277Z,94919.97
2017-06-28T11:03:56.777Z,94919.38
2017-06-28T11:06:24.310Z,94915.88
2017-06-28T11:08:51.853Z,94913.98
2017-06-28T11:11:19.372Z,94907.14
2017-06-28T11:13:46.886Z,94891.47
2017-06-28T11:16:14.427Z,94895.47
2017-06-28T11:18:41.961Z,94894.81
2017-06-28T11:21:09.500Z,94899.52
2017-06-28T11:23:37.051Z,94896.60
2017-06-28T11:26:04.563Z,94886.30
2017-06-28T11:28:32.105Z,94879.70
2017-06-28T11:30:59.687Z,94879.03
2017-06-28T11:33:27.239Z,94883.23
2017-06-28T11:35:54.837Z,94884.23
2017-06-28T11:38:22.373Z,94883.52
2017-06-28T11:40:49.891Z,94874.58
2017-06-28T11:43:17.410Z,94881.83
2017-06-28T11:45:44.972Z,94879.19
2017-06-28T11:48:12.507Z,94883.17
2017-06-28T11:50:40.019Z,94872.58
2017-06-28T11:53:07.589Z,94880.34
2017-06-28T11:55:35.101Z,94878.56
2017-06-28T11:58:02.650Z,94877.51
2017-06-28T12:00:30.191Z,94868.82
2017-06-28T12:02:57.697Z,94869.44
2017-06-28T12:05:25.201Z,94869.07
2017-06-28T12:07:52.775Z,94872.06
2017-06-28T12:10:20.296Z,94871.81
2017-06-28T12:12:47.802Z,94870.80
2017-06-28T12:15:15.353Z,94859.91
2017-06-28T12:17:42.866Z,94870.41
2017-06-28T12:20:10.381Z,94855.64
2017-06-28T12:22:37.943Z,94856.64
2017-06-28T12:25:05.483Z,94847.22
2017-06-28T12:27:33.002Z,94850.86
2017-06-28T12:30:00.562Z,94845.38
2017-06-28T12:32:28.119Z,94838.60
2017-06-28T12:34:55.651Z,94833.80
2017-06-28T12:37:23.174Z,94831.89
2017-06-28T12:39:50.723Z,94821.05
2017-06-28T12:42:18.253Z,94823.46
2017-06-28T12:44:45.764Z,94829.42
2017-06-28T12:47:13.321Z,94822.66
2017-06-28T12:49:40.837Z,94832.44
2017-06-28T12:52:08.357Z,94839.70
2017-06-28T12:54:35.919Z,94831.23
2017-06-28T12:57:03.438Z,94821.84
2017-06-28T12:59:30.959Z,94817.64
2017-06-28T13:01:58.514Z,94821.34
2017-06-28T13:04:26.047Z,94821.15
2017-06-28T13:06:53.572Z,94819.30
2017-06-28T13:09:21.117Z,94804.98
2017-06-28T13:11:48.635Z,94800.78
2017-06-28T13:14:16.141Z,94809.41
2017-06-28T13:16:43.689Z,94799.00
2017-06-28T13:19:11.222Z,94790.88
2017-06-28T13:21:38.732Z,94796.59
2017-06-28T13:24:06.297Z,94790.80
2017-06-28T13:26:34.111Z,94790.61
2017-06-28T13:29:01.637Z,94794.07
2017-06-28T13:31:29.233Z,94796.95
2017-06-28T13:33:56.761Z,94792.37
2017-06-28T13:36:24.294Z,94801.61
2017-06-28T13:38:51.876Z,94799.56
2017-06-28T13:41:19.380Z,94805.81
2017-06-28T13:43:46.911Z,94788.13
2017-06-28T13:46:14.455Z,94795.63
2017-06-28T13:48:41.973Z,94794.80
2017-06-28T13:51:09.486Z,94790.88
2017-06-28T13:53:37.061Z,94783.58
2017-06-28T13:56:04.585Z,94788.52
2017-06-28T13:58:32.107Z,94748.05
2017-06-28T14:00:59.666Z,94789.74
2017-06-28T14:03:27.165Z,94794.56
2017-06-28T14:05:54.678Z,94786.81
2017-06-28T14:08:22.245Z,94791.59
2017-06-28T14:10:49.777Z,94773.36
2017-06-28T14:13:17.305Z,94776.67
2017-06-28T14:15:44.868Z,94774.08
2017-06-28T14:18:12.393Z,94774.04
2017-06-28T14:20:39.906Z,94776.40
2017-06-28T14:23:07.471Z,94771.51
2017-06-28T14:25:34.983Z,94774.52
2017-06-28T14:28:02.525Z,94775.91
2017-06-28T14:30:30.118Z,94772.66
2017-06-28T14:32:57.671Z,94774.16
2017-06-28T14:35:25.612Z,94780.08
2017-06-28T14:37:53.201Z,94774.83
2017-06-28T14:40:20.731Z,94768.52
2017-06-28T14:42:48.241Z,94784.42
2017-06-28T14:45:15.817Z,94781.30
2017-06-28T14:47:43.350Z,94792.06
2017-06-28T14:50:10.858Z,94785.06
2017-06-28T14:52:38.431Z,94776.73
2017-06-28T14:55:05.945Z,94758.83
2017-06-28T14:57:33.465Z,94767.98
2017-06-28T15:00:01.040Z,94760.17
2017-06-28T15:02:28.579Z,94757.39
2017-06-28T15:04:56.097Z,94759.22
2017-06-28T15:07:23.617Z,94759.66
2017-06-28T15:09:51.224Z,94758.00
2017-06-28T15:12:18.734Z,94757.28
2017-06-28T15:14:46.248Z,94744.77
2017-06-28T15:17:13.801Z,94757.28
2017-06-28T15:19:41.309Z,94748.50
2017-06-28T15:22:08.826Z,94748.79
2017-06-28T15:24:36.389Z,94744.06
2017-06-28T15:27:03.917Z,94740.75
2017-06-28T15:29:31.448Z,94741.97
2017-06-28T15:31:58.988Z,94749.50
2017-06-28T15:34:26.501Z,94740.88
2017-06-28T15:36:54.016Z,94742.50
2017-06-28T15:39:21.575Z,94742.11
2017-06-28T15:41:49.097Z,94758.84
2017-06-28T15:44:16.629Z,94758.17
2017-06-28T15:46:44.182Z,94748.97
2017-06-28T15:49:11.685Z,94750.99
2017-06-28T15:51:39.206Z,94758.95
2017-06-28T15:54:18.724Z,94742.23
2017-06-28T15:56:47.201Z,94744.95
2017-06-28T15:59:14.728Z,94735.58
2017-06-28T16:01:42.293Z,94737.13
2017-06-28T16:04:09.792Z,94729.09
2017-06-28T16:06:37.304Z,94737.06
2017-06-28T16:09:04.883Z,94725.95
2017-06-28T16:11:32.417Z,94726.67
2017-06-28T16:13:59.937Z,94727.64
2017-06-28T16:16:28.272Z,94730.98
2017-06-28T16:18:55.782Z,94725.65
2017-06-28T16:21:23.289Z,94719.37
2017-06-28T16:23:51.620Z,94719.37
2017-06-28T16:26:19.197Z,94707.17
2017-06-28T16:28:46.768Z,94711.75
2017-06-28T16:31:14.336Z,94710.52
2017-06-28T16:33:41.847Z,94719.84
2017-06-28T16:36:09.383Z,94725.81
2017-06-28T16:38:36.965Z,94736.81
2017-06-28T16:41:04.489Z,94742.48
2017-06-28T16:43:32.008Z,94747.55
2017-06-28T16:45:59.572Z,94750.86
2017-06-28T16:48:27.198Z,94733.27
2017-06-28T16:50:54.756Z,94771.50
2017-06-28T16:53:22.299Z,94764.52
2017-06-28T16:55:50.144Z,94783.46
2017-06-28T16:58:17.746Z,94772.41
2017-06-28T17:00:45.519Z,94773.94
2017-06-28T17:03:13.020Z,94772.94
2017-06-28T17:05:40.544Z,94777.47
2017-06-28T17:08:08.997Z,94770.87
2017-06-28T17:10:36.501Z,94777.89
2017-06-28T17:13:04.039Z,94787.19
2017-06-28T17:15:31.773Z,94778.64
2017-06-28T17:17:59.287Z,94783.50
2017-06-28T17:20:26.832Z,94783.27
2017-06-28T17:22:54.380Z,94793.02
2017-06-28T17:25:21.892Z,94794.73
2017-06-28T17:27:49.398Z,94796.63
2017-06-28T17:30:17.743Z,94791.80
2017-06-28T17:32:45.259Z,94796.30
2017-06-28T17:35:12.776Z,94799.52
2017-06-28T17:37:40.328Z,94758.97
2017-06-28T17:40:08.412Z,94806.94
2017-06-28T17:42:36.003Z,94813.91
2017-06-28T17:45:03.670Z,94817.06
2017-06-28T17:47:32.065Z,94812.88
2017-06-28T17:50:00.067Z,94813.80
2017-06-28T17:52:27.609Z,94804.63
2017-06-28T17:54:55.139Z,94812.23
2017-06-28T17:57:22.653Z,94807.07
2017-06-28T17:59:50.540Z,94804.91
2017-06-28T18:02:18.086Z,94800.07
2017-06-28T18:04:45.900Z,94800.34
2017-06-28T18:07:13.430Z,94804.98
2017-06-28T18:09:41.096Z,94797.13
2017-06-28T18:12:08.648Z,94801.59
2017-06-28T18:14:36.233Z,94800.56
2017-06-28T18:17:04.657Z,94796.91
2017-06-28T18:19:32.273Z,94802.08
2017-06-28T18:21:59.798Z,94796.83
2017-06-28T18:24:28.137Z,94795.44
2017-06-28T18:26:55.746Z,94799.98
2017-06-28T18:29:23.254Z,94796.13
2017-06-28T18:31:50.808Z,94791.40
2017-06-28T18:34:18.623Z,94795.50
2017-06-28T18:36:46.150Z,94785.79
2017-06-28T18:39:13.719Z,94785.92
2017-06-28T18:41:41.222Z,94767.55
2017-06-28T18:44:08.801Z,94799.50
2017-06-28T18:46:36.367Z,94782.48
2017-06-28T18:49:04.773Z,94762.09
2017-06-28T18:51:32.293Z,94799.46
2017-06-28T18:53:59.856Z,94806.78
2017-06-28T18:56:27.425Z,94812.98
2017-06-28T18:58:54.960Z,94815.25
2017-06-28T19:01:22.791Z,94820.38
2017-06-28T19:03:50.298Z,94826.22
2017-06-28T19:06:17.816Z,94824.63
2017-06-28T19:08:45.364Z,94825.57
2017-06-28T19:11:12.902Z,94840.52
2017-06-28T19:13:40.422Z,94845.58
2017-06-28T19:16:08.009Z,94848.70
2017-06-28T19:18:35.651Z,94839.03
2017-06-28T19:21:03.155Z,94851.17
2017-06-28T19:23:30.724Z,94845.13
2017-06-28T19:25:58.240Z,94854.52
2017-06-28T19:28:25.744Z,94857.55
2017-06-28T19:30:53.319Z,94860.52
2017-06-28T19:33:20.824Z,94851.57
2017-06-28T19:35:48.334Z,94849.72
2017-06-28T19:38:15.919Z,94827.00
2017-06-28T19:40:43.436Z,94849.33
2017-06-28T19:43:10.967Z,94857.57
2017-06-28T19:45:38.547Z,94842.42
2017-06-28T19:48:06.110Z,94859.13
2017-06-28T19:50:33.641Z,94860.73
2017-06-28T19:53:01.458Z,94861.84
2017-06-28T19:55:28.995Z,94868.32
2017-06-28T19:57:56.505Z,94866.52
2017-06-28T20:00:24.156Z,94864.45
2017-06-28T20:02:51.700Z,94871.58
2017-06-28T20:05:19.266Z,94858.90
2017-06-28T20:07:46.779Z,94868.45
2017-06-28T20:10:14.283Z,94871.66
2017-06-28T20:12:41.784Z,94880.20
2017-06-28T20:15:09.360Z,94883.83
2017-06-28T20:17:36.883Z,94868.24
2017-06-28T20:20:04.466Z,94875.48
2017-06-28T20:22:32.051Z,94890.34
2017-06-28T20:24:59.799Z,94889.45
2017-06-28T20:27:27.307Z,94885.39
2017-06-28T20:29:54.850Z,94891.50
2017-06-28T20:32:22.370Z,94889.95
2017-06-28T20:34:49.863Z,94889.09
2017-06-28T20:37:17.362Z,94887.95
2017-06-28T20:39:45.768Z,94891.77
2017-06-28T20:42:13.265Z,94874.43
2017-06-28T20:44:40.776Z,94901.74
2017-06-28T20:47:08.324Z,94908.66
2017-06-28T20:49:35.843Z,94908.75
2017-06-28T20:52:03.352Z,94903.34
2017-06-28T20:54:30.905Z,94899.12
2017-06-28T20:56:58.394Z,94901.14
2017-06-28T20:59:25.893Z,94903.58
2017-06-28T21:01:53.422Z,94872.03
2017-06-28T21:04:20.968Z,94907.63
2017-06-28T21:06:48.488Z,94919.45
2017-06-28T21:09:16.033Z,94910.54
2017-06-28T21:11:43.534Z,94919.87
2017-06-28T21:14:11.044Z,94922.59
2017-06-28T21:16:38.594Z,94930.78
2017-06-28T21:19:06.085Z,94931.70
2017-06-28T21:21:33.591Z,94937.59
2017-06-28T21:24:01.128Z,94946.31
2017-06-28T21:26:28.619Z,94951.63
2017-06-28T21:28:56.111Z,94949.20
2017-06-28T21:31:23.674Z,94951.12
2017-06-28T21:33:51.170Z,94946.94
2017-06-28T21:36:18.656Z,94946.88
2017-06-28T21:38:46.210Z,94943.48
2017-06-28T21:41:13.705Z,94951.97
2017-06-28T21:43:41.215Z,94958.70
2017-06-28T21:46:08.852Z,94952.58
2017-06-28T21:48:36.357Z,94959.89
2017-06-28T21:51:03.863Z,94958.57
2017-06-28T21:53:31.390Z,94961.47
2017-06-28T21:56:09.476Z,94947.77
2017-06-28T21:58:56.545Z,94951.17
2017-06-28T22:01:30.160Z,94966.33
2017-06-28T22:03:57.798Z,94958.94
2017-06-28T22:06:25.320Z,94965.44
2017-06-28T22:08:52.866Z,94970.05
2017-06-28T22:11:20.370Z,94981.33
2017-06-28T22:13:47.871Z,94979.13
2017-06-28T22:16:15.416Z,94980.09
2017-06-28T22:18:54.636Z,94974.31
2017-06-28T22:21:25.553Z,94975.17
2017-06-28T22:24:06.928Z,94969.09
2017-06-28T22:26:39.007Z,94976.02
2017-06-28T22:31:46.840Z,94969.92
2017-06-28T22:34:21.473Z,94968.70
2017-06-28T22:36:51.138Z,94977.28
2017-06-28T22:41:59.920Z,94987.06
2017-06-28T22:44:38.607Z,94985.03
2017-06-28T22:47:15.191Z,94989.12
2017-06-28T22:52:35.244Z,94985.72
2017-06-28T22:55:02.734Z,94995.22
2017-06-28T22:57:30.220Z,94989.72
2017-06-28T22:59:57.764Z,94992.47
2017-06-28T23:02:25.321Z,94987.07
2017-06-28T23:04:52.818Z,94990.20
2017-06-28T23:07:20.330Z,94988.97
2017-06-28T23:09:47.876Z,94993.29
2017-06-28T23:12:15.391Z,94997.53
2017-06-28T23:14:42.878Z,94991.06
2017-06-28T23:17:10.419Z,94991.11
2017-06-28T23:19:37.903Z,94991.34
2017-06-28T23:22:05.416Z,94987.25
2017-06-28T23:24:32.970Z,94956.44
2017-06-28T23:27:00.896Z,94982.55
2017-06-28T23:29:28.393Z,94974.76
2017-06-28T23:31:55.922Z,94978.02
2017-06-28T23:34:23.406Z,94970.63
2017-06-28T23:36:50.926Z,94974.22
2017-06-28T23:39:18.476Z,94963.78
2017-06-28T23:41:45.987Z,94959.88
2017-06-28T23:44:13.497Z,94955.30
2017-06-28T23:46:41.056Z,94950.08
2017-06-28T23:49:08.715Z,94951.59
2017-06-28T23:51:36.198Z,94950.75
2017-06-28T23:54:03.744Z,94952.44
2017-06-28T23:56:31.237Z,94948.80
2017-06-28T23:58:58.718Z,94930.91
